Time;durP1;ratioP1;P1;durP2;ratioP2;P2;SDS_P1;SDS_P2;PMS_P1;PMS_P2;Temp;Humidity;BMP_temperature;BMP_pressure;BME280_temperature;BME280_humidity;BME280_pressure;Samples;Min_cycle;Max_cycle;Signal;HPM_P1;HPM_P2
2020/12/12 00:01:04;;;;;;;16.20;14.80;;;4.00;99.90;;;;;;4959117;28;20524;-77
2020/12/12 00:03:30;;;;;;;16.83;15.43;;;4.00;99.90;;;;;;4959408;28;20448;-76
2020/12/12 00:05:56;;;;;;;16.13;14.73;;;4.00;99.90;;;;;;4977943;28;20444;-76
2020/12/12 00:08:23;;;;;;;18.10;16.50;;;4.10;99.90;;;;;;4959443;28;20467;-76
2020/12/12 00:10:50;;;;;;;18.00;16.37;;;4.10;99.90;;;;;;4977169;28;20432;-77
2020/12/12 00:13:16;;;;;;;19.20;17.40;;;4.10;99.90;;;;;;4959942;28;20479;-76
2020/12/12 00:15:43;;;;;;;17.77;16.17;;;4.10;99.90;;;;;;4976836;28;20444;-77
2020/12/12 00:18:09;;;;;;;18.07;16.47;;;4.20;99.90;;;;;;4958962;28;20441;-76
2020/12/12 00:20:36;;;;;;;18.80;16.97;;;4.10;99.90;;;;;;4959643;28;20473;-78
2020/12/12 00:23:02;;;;;;;18.97;17.07;;;4.20;99.90;;;;;;4976708;28;20431;-76
2020/12/12 00:25:29;;;;;;;17.87;16.37;;;4.20;99.90;;;;;;4959269;28;20480;-77
2020/12/12 00:27:56;;;;;;;17.80;16.10;;;4.30;99.90;;;;;;4976619;28;20487;-78
2020/12/12 00:30:23;;;;;;;17.37;15.83;;;4.30;99.90;;;;;;4958634;28;21007;-78
2020/12/12 00:32:49;;;;;;;17.10;15.60;;;4.30;99.90;;;;;;4976491;28;20425;-76
2020/12/12 00:35:15;;;;;;;16.47;14.97;;;4.40;99.90;;;;;;4975768;28;20444;-76
2020/12/12 00:37:42;;;;;;;16.07;14.77;;;4.40;99.90;;;;;;4976536;28;20432;-77
2020/12/12 00:40:08;;;;;;;16.43;14.90;;;4.40;99.90;;;;;;4958822;28;20898;-77
2020/12/12 00:42:35;;;;;;;15.97;14.47;;;4.40;99.90;;;;;;4958642;28;20507;-77
2020/12/12 00:45:02;;;;;;;16.23;14.77;;;4.40;99.90;;;;;;4976233;28;20509;-77
2020/12/12 00:47:28;;;;;;;16.07;14.73;;;4.40;99.90;;;;;;4958332;28;20444;-76
2020/12/12 00:49:54;;;;;;;16.93;15.43;;;4.40;99.90;;;;;;4958146;28;20481;-77
2020/12/12 00:52:20;;;;;;;16.23;14.83;;;4.40;99.90;;;;;;4958270;28;20454;-78
2020/12/12 00:54:47;;;;;;;16.87;15.37;;;4.40;99.90;;;;;;4957782;28;20503;-77
2020/12/12 00:57:13;;;;;;;17.20;15.60;;;4.40;99.90;;;;;;4975652;28;20439;-77
2020/12/12 00:59:39;;;;;;;16.20;14.90;;;4.30;99.90;;;;;;4957747;28;20477;-77
2020/12/12 01:02:07;;;;;;;16.67;15.20;;;4.40;99.90;;;;;;4975281;28;20930;-78
2020/12/12 01:04:33;;;;;;;16.03;14.63;;;4.40;99.90;;;;;;4975459;28;20441;-77
2020/12/12 01:06:59;;;;;;;16.93;15.40;;;4.40;99.90;;;;;;4958238;28;20441;-77
2020/12/12 01:09:25;;;;;;;16.77;15.37;;;4.40;99.90;;;;;;4957863;28;20476;-76
2020/12/12 01:11:54;;;;;;;16.93;15.37;;;4.40;99.90;;;;;;4957655;28;20540;-77
2020/12/12 01:14:20;;;;;;;17.20;15.70;;;4.30;99.90;;;;;;4957815;28;20538;-78
2020/12/12 01:16:46;;;;;;;16.60;15.20;;;4.30;99.90;;;;;;4975227;28;20798;-78
2020/12/12 01:19:13;;;;;;;16.70;15.20;;;4.30;99.90;;;;;;4957789;28;20471;-76
2020/12/12 01:21:40;;;;;;;17.93;16.33;;;4.40;99.90;;;;;;4975503;28;20479;-78
2020/12/12 01:24:06;;;;;;;17.73;16.07;;;4.30;99.90;;;;;;4974680;28;20559;-78
2020/12/12 01:26:32;;;;;;;17.50;15.83;;;4.30;99.90;;;;;;4957343;28;20458;-77
2020/12/12 01:28:59;;;;;;;17.40;15.90;;;4.30;99.90;;;;;;4957570;28;20469;-78
2020/12/12 01:31:26;;;;;;;17.10;15.60;;;4.30;99.90;;;;;;4975385;28;20475;-77
2020/12/12 01:33:52;;;;;;;17.73;16.17;;;4.30;99.90;;;;;;4975207;28;20845;-76
2020/12/12 01:36:19;;;;;;;16.87;15.47;;;4.30;99.90;;;;;;4957433;28;20471;-77
2020/12/12 01:38:46;;;;;;;16.63;15.23;;;4.30;99.90;;;;;;4975156;28;20526;-78
2020/12/12 01:41:13;;;;;;;17.73;16.23;;;4.30;99.90;;;;;;4957160;28;20484;-76
2020/12/12 01:43:39;;;;;;;17.80;16.20;;;4.30;99.90;;;;;;4957671;28;20452;-77
2020/12/12 01:46:05;;;;;;;16.77;15.20;;;4.30;99.90;;;;;;4957431;28;20863;-77
2020/12/12 01:48:31;;;;;;;16.97;15.47;;;4.40;99.90;;;;;;4974862;28;20455;-77
2020/12/12 01:50:58;;;;;;;16.43;15.03;;;4.40;99.90;;;;;;4975069;28;20448;-76
2020/12/12 01:53:28;;;;;;;17.20;15.80;;;4.40;99.90;;;;;;4974775;28;20483;-78
2020/12/12 01:55:54;;;;;;;16.00;14.70;;;4.50;99.90;;;;;;4974614;28;20444;-77
2020/12/12 01:58:21;;;;;;;15.87;14.53;;;4.40;99.90;;;;;;4957452;28;20901;-78
2020/12/12 02:00:47;;;;;;;16.83;15.40;;;4.50;99.90;;;;;;4974223;28;20476;-78
2020/12/12 02:03:14;;;;;;;16.70;15.20;;;4.60;99.90;;;;;;4973022;28;20440;-77
2020/12/12 02:05:42;;;;;;;16.57;15.17;;;4.60;99.90;;;;;;4974309;28;20965;-79
2020/12/12 02:08:13;;;;;;;16.87;15.47;;;4.60;99.90;;;;;;4974993;28;20499;-77
2020/12/12 02:10:41;;;;;;;16.37;14.93;;;4.60;99.90;;;;;;4974456;28;20503;-76
2020/12/12 02:13:08;;;;;;;17.20;15.80;;;4.60;99.90;;;;;;4956843;28;20449;-77
2020/12/12 02:15:35;;;;;;;17.90;16.30;;;4.60;99.90;;;;;;4957179;28;20882;-77
2020/12/12 02:18:04;;;;;;;16.77;15.37;;;4.70;99.90;;;;;;4974105;28;20425;-78
2020/12/12 02:20:30;;;;;;;16.57;15.27;;;4.60;99.90;;;;;;4974333;28;20832;-77
2020/12/12 02:22:57;;;;;;;17.00;15.60;;;4.70;99.90;;;;;;4957400;28;20452;-77
2020/12/12 02:25:24;;;;;;;17.20;15.70;;;4.70;99.90;;;;;;4974328;28;20480;-78
2020/12/12 02:27:53;;;;;;;17.87;16.27;;;4.70;99.90;;;;;;4957423;28;20449;-78
2020/12/12 02:30:19;;;;;;;17.63;16.13;;;4.70;99.90;;;;;;5008616;23;20990;-79
2020/12/12 02:32:46;;;;;;;16.37;14.97;;;4.70;99.90;;;;;;5010228;28;20873;-80
2020/12/12 02:35:12;;;;;;;17.57;16.07;;;4.70;99.90;;;;;;5011706;28;20467;-79
2020/12/12 02:37:38;;;;;;;16.67;15.27;;;4.70;99.90;;;;;;5013671;28;20455;-79
2020/12/12 02:40:06;;;;;;;17.07;15.57;;;4.80;99.90;;;;;;4999054;28;20494;-80
2020/12/12 02:42:32;;;;;;;16.70;15.20;;;4.80;99.90;;;;;;4995499;28;20996;-79
2020/12/12 02:44:59;;;;;;;16.93;15.53;;;4.80;99.90;;;;;;4994301;28;20498;-79
2020/12/12 02:47:25;;;;;;;15.53;14.27;;;4.80;99.90;;;;;;4995856;28;20470;-78
2020/12/12 02:50:08;;;;;;;16.67;15.37;;;4.90;99.90;;;;;;4993441;28;20463;-78
2020/12/12 02:52:35;;;;;;;16.50;15.17;;;4.90;99.90;;;;;;4994054;28;20467;-79
2020/12/12 02:55:01;;;;;;;16.97;15.47;;;4.90;99.90;;;;;;4993974;28;20507;-79
2020/12/12 02:57:29;;;;;;;17.20;15.70;;;4.80;99.90;;;;;;4993698;28;20458;-79
2020/12/12 02:59:55;;;;;;;16.17;14.83;;;4.80;99.90;;;;;;4993026;28;20525;-79
2020/12/12 03:02:21;;;;;;;18.00;16.40;;;4.70;99.90;;;;;;4993553;28;20495;-78
2020/12/12 03:04:47;;;;;;;17.70;16.30;;;4.60;99.90;;;;;;4993675;28;20483;-78
2020/12/12 03:07:14;;;;;;;16.67;15.37;;;4.60;99.90;;;;;;4994437;28;20424;-80
2020/12/12 03:09:40;;;;;;;17.77;16.37;;;4.50;99.90;;;;;;4993779;28;20511;-78
2020/12/12 03:12:06;;;;;;;17.90;16.40;;;4.50;99.90;;;;;;4994533;28;20428;-78
2020/12/12 03:14:33;;;;;;;16.93;15.63;;;4.40;99.90;;;;;;4994664;28;20432;-80
2020/12/12 03:17:00;;;;;;;17.90;16.50;;;4.40;99.90;;;;;;4993723;28;20515;-78
2020/12/12 03:19:26;;;;;;;17.53;16.17;;;4.40;99.90;;;;;;4993499;28;20460;-78
2020/12/12 03:21:52;;;;;;;18.27;16.80;;;4.40;99.90;;;;;;4994318;28;20479;-78
2020/12/12 03:24:19;;;;;;;17.80;16.20;;;4.30;99.90;;;;;;4992988;28;20445;-78
2020/12/12 03:26:45;;;;;;;17.23;15.83;;;4.30;99.90;;;;;;4992802;28;20542;-78
2020/12/12 03:29:11;;;;;;;17.20;15.80;;;4.30;99.90;;;;;;4991940;28;20847;-78
2020/12/12 03:31:38;;;;;;;18.50;16.97;;;4.30;99.90;;;;;;4993286;28;20526;-78
2020/12/12 03:34:05;;;;;;;17.57;16.17;;;4.30;99.90;;;;;;4994037;28;20501;-80
2020/12/12 03:36:31;;;;;;;18.13;16.53;;;4.20;99.90;;;;;;4992421;28;20480;-79
2020/12/12 03:38:57;;;;;;;17.50;16.20;;;4.20;99.90;;;;;;4991975;28;20518;-78
2020/12/12 03:41:24;;;;;;;16.63;15.33;;;4.20;99.90;;;;;;4992907;28;20487;-77
2020/12/12 03:43:50;;;;;;;17.77;16.37;;;4.20;99.90;;;;;;4992297;28;20507;-77
2020/12/12 03:46:17;;;;;;;16.63;15.33;;;4.20;99.90;;;;;;4989580;28;20513;-79
2020/12/12 03:48:44;;;;;;;17.40;16.00;;;4.20;99.90;;;;;;4971613;28;20516;-78
2020/12/12 03:51:10;;;;;;;17.30;15.90;;;4.10;99.90;;;;;;4972432;28;20854;-78
2020/12/12 03:53:37;;;;;;;17.20;15.80;;;4.10;99.90;;;;;;4973733;28;20473;-78
2020/12/12 03:56:03;;;;;;;17.80;16.33;;;4.10;99.90;;;;;;4972569;28;20475;-78
2020/12/12 03:58:29;;;;;;;17.63;16.23;;;4.00;99.90;;;;;;4959134;28;20449;-79
2020/12/12 04:00:55;;;;;;;19.77;18.07;;;4.00;99.90;;;;;;4972152;28;20560;-76
2020/12/12 04:03:22;;;;;;;18.10;16.60;;;4.00;99.90;;;;;;4966741;28;20521;-79
2020/12/12 04:05:49;;;;;;;18.33;16.73;;;4.00;99.90;;;;;;4955659;28;20556;-79
2020/12/12 04:08:16;;;;;;;18.77;17.27;;;3.90;99.90;;;;;;4956737;28;20517;-79
2020/12/12 04:10:42;;;;;;;19.33;17.73;;;4.00;99.90;;;;;;4969595;28;20520;-80
2020/12/12 04:13:08;;;;;;;19.83;18.13;;;3.90;99.90;;;;;;4973185;28;20437;-79
2020/12/12 04:15:34;;;;;;;20.07;18.37;;;3.90;99.90;;;;;;4971415;28;20871;-79
2020/12/12 04:18:01;;;;;;;18.83;17.33;;;3.90;99.90;;;;;;4972377;28;20449;-79
2020/12/12 04:20:27;;;;;;;19.90;18.33;;;3.90;99.90;;;;;;4970155;28;20525;-79
2020/12/12 04:22:54;;;;;;;18.53;17.13;;;4.00;99.90;;;;;;4954438;28;20454;-79
2020/12/12 04:25:20;;;;;;;19.40;17.73;;;4.00;99.90;;;;;;4963723;28;20449;-79
2020/12/12 04:27:48;;;;;;;20.93;19.13;;;3.90;99.90;;;;;;4970655;28;20874;-79
2020/12/12 04:30:14;;;;;;;20.30;18.60;;;3.90;99.90;;;;;;4969955;28;21078;-80
2020/12/12 04:32:40;;;;;;;20.60;18.80;;;3.90;99.90;;;;;;4969253;28;20881;-79
2020/12/12 04:35:06;;;;;;;19.20;17.53;;;3.90;99.90;;;;;;4968243;28;20508;-78
2020/12/12 04:37:33;;;;;;;20.37;18.57;;;3.90;99.90;;;;;;4958825;28;20455;-80
2020/12/12 04:40:00;;;;;;;21.00;19.10;;;3.90;99.90;;;;;;4951525;28;20462;-79
2020/12/12 04:42:27;;;;;;;21.07;19.20;;;3.90;99.90;;;;;;4958606;28;20536;-79
2020/12/12 04:44:54;;;;;;;20.53;18.77;;;3.90;99.90;;;;;;4955096;28;20453;-79
2020/12/12 04:47:24;;;;;;;20.30;18.43;;;3.80;99.90;;;;;;4969967;28;20455;-80
2020/12/12 04:49:50;;;;;;;19.23;17.63;;;3.80;99.90;;;;;;4968866;28;20552;-79
2020/12/12 04:52:20;;;;;;;20.93;19.20;;;3.80;99.90;;;;;;4954470;28;20437;-79
2020/12/12 04:54:47;;;;;;;20.27;18.43;;;3.80;99.90;;;;;;4956417;28;20441;-79
2020/12/12 04:57:15;;;;;;;19.20;17.57;;;3.90;99.90;;;;;;4954384;28;20501;-79
2020/12/12 04:59:43;;;;;;;18.30;16.77;;;3.90;99.90;;;;;;4953354;28;20527;-79
2020/12/12 05:02:12;;;;;;;16.90;15.60;;;4.00;99.90;;;;;;4978828;28;20902;-76
2020/12/12 05:04:39;;;;;;;13.63;12.73;;;4.10;99.90;;;;;;4973226;28;20437;-77
2020/12/12 05:07:05;;;;;;;13.80;12.80;;;4.30;99.90;;;;;;4973122;28;20978;-77
2020/12/12 05:09:32;;;;;;;12.33;11.57;;;4.40;99.90;;;;;;4979674;28;20523;-78
2020/12/12 05:11:58;;;;;;;12.67;11.87;;;4.40;99.90;;;;;;4973045;28;20483;-78
2020/12/12 05:14:25;;;;;;;12.90;12.10;;;4.50;99.90;;;;;;4982076;28;20519;-77
2020/12/12 05:16:54;;;;;;;12.67;11.97;;;4.60;99.90;;;;;;4972472;28;20452;-77
2020/12/12 05:19:21;;;;;;;12.40;11.70;;;4.60;99.90;;;;;;4983062;28;20464;-77
2020/12/12 05:21:48;;;;;;;13.13;12.33;;;4.70;99.90;;;;;;4972646;28;20481;-77
2020/12/12 05:24:15;;;;;;;12.67;11.97;;;4.70;99.90;;;;;;4958376;28;21020;-77
2020/12/12 05:26:43;;;;;;;12.87;12.10;;;4.70;99.90;;;;;;4981446;28;20478;-78
2020/12/12 05:29:10;;;;;;;12.27;11.57;;;4.70;99.90;;;;;;4974822;28;20483;-79
2020/12/12 05:31:38;;;;;;;12.33;11.63;;;4.70;99.90;;;;;;4978742;28;20433;-78
2020/12/12 05:34:13;;;;;;;12.27;11.57;;;4.70;99.90;;;;;;4974876;28;20451;-79
2020/12/12 05:36:40;;;;;;;12.40;11.70;;;4.70;99.90;;;;;;4977576;28;20782;-81
2020/12/12 05:39:10;;;;;;;13.03;12.33;;;4.70;99.90;;;;;;4980884;28;20552;-80
2020/12/12 05:41:36;;;;;;;12.20;11.50;;;4.80;99.90;;;;;;4973273;28;20854;-79
2020/12/12 05:44:03;;;;;;;12.33;11.63;;;4.80;99.90;;;;;;4980703;28;20460;-78
2020/12/12 05:46:31;;;;;;;11.73;11.13;;;4.80;99.90;;;;;;4972724;28;20469;-77
2020/12/12 05:48:58;;;;;;;12.03;11.33;;;4.80;99.90;;;;;;4970378;28;21004;-78
2020/12/12 05:51:27;;;;;;;12.50;11.80;;;4.80;99.90;;;;;;4983135;28;20520;-78
2020/12/12 05:53:55;;;;;;;12.33;11.63;;;4.80;99.90;;;;;;4978950;28;20487;-77
2020/12/12 05:56:30;;;;;;;12.07;11.37;;;4.80;99.90;;;;;;4975141;28;20512;-82
2020/12/12 05:58:57;;;;;;;11.83;11.13;;;4.80;99.90;;;;;;4987480;28;21009;-81
2020/12/12 06:01:26;;;;;;;11.70;11.00;;;4.80;99.90;;;;;;4983674;28;20893;-81
2020/12/12 06:03:53;;;;;;;11.27;10.63;;;4.80;99.90;;;;;;4976514;28;20459;-81
2020/12/12 06:06:25;;;;;;;11.70;11.00;;;4.80;99.90;;;;;;4973481;28;20483;-81
2020/12/12 06:09:04;;;;;;;12.33;11.63;;;4.70;99.90;;;;;;4972859;28;20886;-81
2020/12/12 06:11:32;;;;;;;12.00;11.30;;;4.70;99.90;;;;;;4982297;28;20436;-79
2020/12/12 06:14:00;;;;;;;11.87;11.17;;;4.70;99.90;;;;;;4991456;28;21016;-80
2020/12/12 06:16:28;;;;;;;12.40;11.70;;;4.70;99.90;;;;;;4980512;28;20461;-80
2020/12/12 06:19:08;;;;;;;12.50;11.80;;;4.70;99.90;;;;;;4978021;28;20457;-78
2020/12/12 06:21:36;;;;;;;13.20;12.40;;;4.70;99.90;;;;;;4975707;28;20547;-79
2020/12/12 06:24:05;;;;;;;13.67;12.87;;;4.70;99.90;;;;;;4975795;28;20685;-79
2020/12/12 06:26:50;;;;;;;13.90;13.10;;;4.60;99.90;;;;;;4985628;28;20483;-78
2020/12/12 06:29:18;;;;;;;13.97;13.07;;;4.60;99.90;;;;;;4990143;28;20479;-79
2020/12/12 06:31:45;;;;;;;15.03;14.00;;;4.60;99.90;;;;;;4988831;28;20460;-79
2020/12/12 06:34:12;;;;;;;15.03;14.00;;;4.50;99.90;;;;;;4980943;28;20443;-79
2020/12/12 06:36:45;;;;;;;15.17;14.07;;;4.50;99.90;;;;;;4989897;28;20958;-79
2020/12/12 06:39:29;;;;;;;15.37;14.30;;;4.50;99.90;;;;;;4972905;28;20542;-82
2020/12/12 06:41:58;;;;;;;15.53;14.43;;;4.50;99.90;;;;;;4986000;28;20547;-80
2020/12/12 06:44:31;;;;;;;16.10;14.90;;;4.40;99.90;;;;;;4988416;28;20880;-80
2020/12/12 06:46:58;;;;;;;15.47;14.27;;;4.40;99.90;;;;;;4981829;28;20875;-79
2020/12/12 06:49:24;;;;;;;15.80;14.70;;;4.40;99.90;;;;;;4985485;28;20475;-81
2020/12/12 06:51:52;;;;;;;16.87;15.67;;;4.40;99.90;;;;;;4981345;28;20445;-80
2020/12/12 06:54:19;;;;;;;16.80;15.60;;;4.40;99.90;;;;;;4978666;28;20453;-80
2020/12/12 06:56:45;;;;;;;15.50;14.40;;;4.40;99.90;;;;;;4973027;28;20448;-80
2020/12/12 06:59:25;;;;;;;16.13;14.93;;;4.40;99.90;;;;;;4980270;28;20510;-80
2020/12/12 07:01:53;;;;;;;16.57;15.30;;;4.40;99.90;;;;;;4982471;28;20476;-80
2020/12/12 07:04:26;;;;;;;15.47;14.33;;;4.40;99.90;;;;;;4977535;28;20526;-79
2020/12/12 07:06:59;;;;;;;15.73;14.63;;;4.40;99.90;;;;;;4975656;28;20511;-79
2020/12/12 07:09:27;;;;;;;15.90;14.80;;;4.40;99.90;;;;;;4974059;28;20519;-80
2020/12/12 07:11:54;;;;;;;16.07;15.03;;;4.40;99.90;;;;;;4987037;28;20437;-80
2020/12/12 07:14:21;;;;;;;16.47;15.27;;;4.40;99.90;;;;;;4978540;28;20435;-80
2020/12/12 07:16:47;;;;;;;15.97;14.87;;;4.40;99.90;;;;;;4974147;28;20563;-80
2020/12/12 07:19:16;;;;;;;16.20;15.00;;;4.50;99.90;;;;;;4973303;28;20532;-80
2020/12/12 07:21:42;;;;;;;17.00;15.80;;;4.50;99.90;;;;;;4972441;28;20586;-79
2020/12/12 07:24:09;;;;;;;15.33;14.20;;;4.50;99.90;;;;;;4972859;28;20463;-80
2020/12/12 07:26:36;;;;;;;15.90;14.80;;;4.60;99.90;;;;;;4972620;28;20461;-78
2020/12/12 07:29:02;;;;;;;15.67;14.57;;;4.60;99.90;;;;;;4970691;28;20472;-80
2020/12/12 07:31:29;;;;;;;15.57;14.43;;;4.60;99.90;;;;;;4971902;28;20735;-80
2020/12/12 07:33:55;;;;;;;15.37;14.27;;;4.70;99.90;;;;;;4984259;28;20449;-80
2020/12/12 07:36:22;;;;;;;16.80;15.60;;;4.70;99.90;;;;;;4972156;28;20507;-80
2020/12/12 07:38:48;;;;;;;15.13;14.13;;;4.80;99.90;;;;;;4973495;28;20516;-81
2020/12/12 07:41:15;;;;;;;15.83;14.70;;;4.80;99.90;;;;;;4983184;28;20470;-80
2020/12/12 07:43:55;;;;;;;14.80;13.80;;;4.90;99.90;;;;;;4968025;28;20932;-78
2020/12/12 07:46:27;;;;;;;15.73;14.53;;;5.00;99.90;;;;;;4978741;28;20460;-79
2020/12/12 07:49:00;;;;;;;15.50;14.40;;;5.00;99.90;;;;;;4983660;28;20460;-77
2020/12/12 07:51:27;;;;;;;15.90;14.77;;;5.10;99.90;;;;;;4978185;28;20435;-80
2020/12/12 07:53:53;;;;;;;15.30;14.10;;;5.20;99.90;;;;;;4981227;28;20653;-81
2020/12/12 07:56:22;;;;;;;15.67;14.57;;;5.30;99.90;;;;;;4976845;28;20512;-80
2020/12/12 07:58:57;;;;;;;16.00;14.87;;;5.30;99.90;;;;;;4972983;28;20478;-77
2020/12/12 08:01:24;;;;;;;16.43;15.23;;;5.40;99.90;;;;;;4989186;28;20275;-77
2020/12/12 08:03:50;;;;;;;15.30;14.20;;;5.50;99.90;;;;;;4978945;28;20460;-78
2020/12/12 08:06:16;;;;;;;15.63;14.53;;;5.50;99.90;;;;;;4973871;28;20450;-78
2020/12/12 08:08:53;;;;;;;14.97;13.93;;;5.50;99.90;;;;;;4979992;28;20465;-78
2020/12/12 08:11:20;;;;;;;15.43;14.43;;;5.60;99.90;;;;;;4976084;28;20959;-78
2020/12/12 08:13:46;;;;;;;15.57;14.50;;;5.60;99.90;;;;;;4975239;28;20198;-80
2020/12/12 08:16:16;;;;;;;15.20;14.20;;;5.70;99.90;;;;;;4980674;28;20525;-80
2020/12/12 08:18:42;;;;;;;15.80;14.70;;;5.70;99.90;;;;;;4974071;28;20218;-80
2020/12/12 08:21:10;;;;;;;14.87;13.87;;;5.80;99.90;;;;;;4983521;28;20894;-80
2020/12/12 08:23:37;;;;;;;15.50;14.40;;;5.80;99.90;;;;;;4973181;28;20300;-81
2020/12/12 08:26:05;;;;;;;17.33;16.23;;;5.90;99.90;;;;;;4985088;28;20261;-81
2020/12/12 08:28:39;;;;;;;15.77;14.77;;;5.90;99.90;;;;;;4974670;28;20244;-80
2020/12/12 08:31:10;;;;;;;15.60;14.60;;;5.90;99.90;;;;;;4981778;28;20313;-80
2020/12/12 08:33:37;;;;;;;15.73;14.63;;;5.90;99.90;;;;;;4974568;28;20586;-81
2020/12/12 08:36:23;;;;;;;16.13;14.90;;;5.90;99.90;;;;;;4973139;28;20268;-81
2020/12/12 08:38:54;;;;;;;15.37;14.30;;;5.90;99.90;;;;;;4961803;28;20665;-80
2020/12/12 08:41:21;;;;;;;13.27;12.17;;;5.90;99.90;;;;;;4972191;28;20254;-81
2020/12/12 08:43:48;;;;;;;16.13;14.93;;;6.00;99.90;;;;;;4966121;28;20305;-78
2020/12/12 08:46:16;;;;;;;15.73;14.73;;;6.10;99.90;;;;;;4972180;28;20213;-78
2020/12/12 08:48:43;;;;;;;16.07;14.97;;;6.10;99.90;;;;;;4982709;28;20277;-78
2020/12/12 08:51:10;;;;;;;17.47;16.27;;;6.10;99.90;;;;;;4969271;28;20662;-78
2020/12/12 08:53:38;;;;;;;15.70;14.70;;;6.20;99.90;;;;;;4974237;28;20225;-78
2020/12/12 08:56:12;;;;;;;15.90;14.70;;;6.30;99.90;;;;;;4975427;28;20390;-77
2020/12/12 08:58:49;;;;;;;15.73;14.53;;;6.40;99.90;;;;;;4982881;28;20249;-78
2020/12/12 09:01:28;;;;;;;16.80;15.60;;;6.40;99.90;;;;;;4976326;28;20209;-78
2020/12/12 09:03:57;;;;;;;15.13;14.13;;;6.40;99.90;;;;;;4974666;28;20229;-78
2020/12/12 09:06:25;;;;;;;15.67;14.53;;;6.40;99.90;;;;;;4975733;28;20624;-78
2020/12/12 09:09:11;;;;;;;15.07;14.00;;;6.50;99.90;;;;;;4980508;28;20669;-78
2020/12/12 09:11:39;;;;;;;16.07;14.97;;;6.50;99.90;;;;;;4978212;28;20205;-77
2020/12/12 09:14:06;;;;;;;16.57;15.47;;;6.50;99.90;;;;;;4975345;28;20210;-78
2020/12/12 09:16:33;;;;;;;16.63;15.43;;;6.60;99.90;;;;;;4965595;28;20206;-79
2020/12/12 09:19:00;;;;;;;17.20;16.00;;;6.60;99.90;;;;;;4971043;28;20264;-79
2020/12/12 09:21:26;;;;;;;17.40;16.10;;;6.60;99.90;;;;;;4971550;28;20226;-81
2020/12/12 09:23:53;;;;;;;17.63;16.43;;;6.60;99.90;;;;;;4972027;28;20237;-80
2020/12/12 09:26:20;;;;;;;17.40;16.20;;;6.60;99.90;;;;;;4977605;28;20224;-81
2020/12/12 09:28:47;;;;;;;18.47;17.07;;;6.70;99.90;;;;;;4972491;28;20309;-81
2020/12/12 09:31:15;;;;;;;17.10;15.87;;;6.70;99.90;;;;;;4979138;28;20198;-80
2020/12/12 09:33:42;;;;;;;17.07;15.87;;;6.80;99.90;;;;;;4972708;28;20214;-79
2020/12/12 09:36:09;;;;;;;17.27;16.17;;;6.80;99.90;;;;;;4979681;28;20212;-80
2020/12/12 09:38:36;;;;;;;17.10;15.87;;;6.90;99.90;;;;;;4977262;28;20201;-81
2020/12/12 09:41:02;;;;;;;17.23;15.93;;;6.90;99.90;;;;;;4978131;28;20734;-80
2020/12/12 09:43:28;;;;;;;16.10;15.00;;;6.90;99.90;;;;;;4978978;28;20221;-79
2020/12/12 09:45:54;;;;;;;16.20;15.00;;;6.90;99.90;;;;;;4971034;28;20742;-80
2020/12/12 09:48:21;;;;;;;16.73;15.50;;;6.90;99.90;;;;;;4980912;28;20203;-79
2020/12/12 09:50:48;;;;;;;15.33;14.13;;;6.90;99.90;;;;;;4970734;28;20239;-79
2020/12/12 09:53:14;;;;;;;14.73;13.63;;;6.90;99.90;;;;;;4981160;28;20674;-79
2020/12/12 09:55:42;;;;;;;15.20;14.20;;;6.90;99.90;;;;;;4987191;28;20214;-79
2020/12/12 09:58:08;;;;;;;15.40;14.40;;;6.90;99.90;;;;;;4981468;28;20225;-80
2020/12/12 10:00:38;;;;;;;17.03;15.93;;;6.90;99.90;;;;;;4970712;28;20222;-79
2020/12/12 10:03:05;;;;;;;14.80;13.80;;;6.80;99.90;;;;;;4971026;28;20233;-81
2020/12/12 10:05:32;;;;;;;16.47;15.47;;;6.80;99.90;;;;;;4982963;28;20627;-80
2020/12/12 10:07:59;;;;;;;17.20;16.10;;;6.70;99.90;;;;;;4975299;28;20197;-80
2020/12/12 10:10:27;;;;;;;17.17;16.10;;;6.70;99.90;;;;;;4978015;28;20269;-80
2020/12/12 10:12:54;;;;;;;14.57;13.57;;;6.70;99.90;;;;;;4971483;28;20229;-81
2020/12/12 10:15:22;;;;;;;14.50;13.60;;;6.60;99.90;;;;;;4971579;28;20273;-80
2020/12/12 10:17:49;;;;;;;14.43;13.40;;;6.60;99.90;;;;;;4981516;28;20572;-80
2020/12/12 10:20:16;;;;;;;14.40;13.40;;;6.60;99.90;;;;;;4980166;28;20260;-80
2020/12/12 10:22:43;;;;;;;15.07;14.07;;;6.60;99.90;;;;;;4970643;28;20312;-79
2020/12/12 10:25:10;;;;;;;16.87;15.77;;;6.60;99.90;;;;;;4980301;28;20260;-80
2020/12/12 10:27:38;;;;;;;16.57;15.37;;;6.60;99.90;;;;;;4975149;28;20210;-80
2020/12/12 10:30:06;;;;;;;15.17;14.23;;;6.60;99.90;;;;;;4969363;28;20242;-79
2020/12/12 10:32:32;;;;;;;15.30;14.17;;;6.60;99.90;;;;;;4970564;28;20217;-80
2020/12/12 10:34:59;;;;;;;15.30;14.20;;;6.60;99.90;;;;;;4973597;28;20198;-80
2020/12/12 10:37:25;;;;;;;15.90;14.80;;;6.60;99.90;;;;;;4980475;28;20265;-80
2020/12/12 10:39:55;;;;;;;14.70;13.57;;;6.60;99.90;;;;;;4971047;28;20230;-80
2020/12/12 10:42:22;;;;;;;14.37;13.43;;;6.60;99.90;;;;;;4974961;28;20218;-79
2020/12/12 10:44:48;;;;;;;13.93;13.03;;;6.60;99.90;;;;;;4987256;28;20273;-80
2020/12/12 10:47:15;;;;;;;14.70;13.80;;;6.60;99.90;;;;;;4983215;28;20265;-80
2020/12/12 10:49:41;;;;;;;14.80;13.80;;;6.60;99.90;;;;;;4973865;28;20234;-80
2020/12/12 10:52:08;;;;;;;14.50;13.50;;;6.60;99.90;;;;;;4979833;28;20195;-80
2020/12/12 10:54:34;;;;;;;15.60;14.50;;;6.60;99.90;;;;;;4970625;28;20261;-80
2020/12/12 10:57:00;;;;;;;14.50;13.50;;;6.60;99.90;;;;;;4964259;28;20214;-80
2020/12/12 10:59:28;;;;;;;15.03;13.93;;;6.60;99.90;;;;;;4977536;28;20276;-79
2020/12/12 11:01:55;;;;;;;14.40;13.40;;;6.60;99.90;;;;;;4973981;28;20691;-75
2020/12/12 11:04:22;;;;;;;15.97;14.77;;;6.70;99.90;;;;;;4980682;28;20252;-77
2020/12/12 11:06:48;;;;;;;15.43;14.33;;;6.70;99.90;;;;;;4976982;28;20190;-77
2020/12/12 11:09:15;;;;;;;16.40;15.20;;;6.70;99.90;;;;;;4974839;28;20225;-77
2020/12/12 11:11:41;;;;;;;16.13;14.93;;;6.70;99.90;;;;;;4975030;28;20672;-77
2020/12/12 11:14:09;;;;;;;16.37;15.17;;;6.80;99.90;;;;;;4976397;28;20206;-77
2020/12/12 11:16:36;;;;;;;15.23;14.10;;;6.80;99.90;;;;;;4982934;28;20258;-77
2020/12/12 11:19:03;;;;;;;15.90;14.80;;;6.90;99.90;;;;;;4985913;28;20252;-77
2020/12/12 11:21:29;;;;;;;16.83;15.47;;;7.00;99.90;;;;;;4975725;28;20633;-77
2020/12/12 11:23:56;;;;;;;16.57;15.37;;;7.00;99.90;;;;;;4975449;28;20211;-77
2020/12/12 11:26:23;;;;;;;16.97;15.67;;;7.10;99.90;;;;;;4978620;28;20288;-77
2020/12/12 11:28:49;;;;;;;17.20;15.90;;;7.10;99.90;;;;;;4974916;28;20226;-76
2020/12/12 11:31:17;;;;;;;17.37;15.87;;;7.20;99.90;;;;;;4982380;28;20210;-78
2020/12/12 11:33:47;;;;;;;17.37;15.97;;;7.30;99.90;;;;;;4975225;28;20239;-81
2020/12/12 11:36:30;;;;;;;17.03;15.73;;;7.40;99.90;;;;;;4980051;28;20214;-79
2020/12/12 11:38:59;;;;;;;15.87;14.67;;;7.40;99.90;;;;;;4990303;28;20222;-80
2020/12/12 11:41:43;;;;;;;16.67;15.47;;;7.50;99.90;;;;;;4992269;28;20562;-80
2020/12/12 11:44:28;;;;;;;15.20;14.10;;;7.50;99.90;;;;;;4995062;28;20326;-80
2020/12/12 11:46:55;;;;;;;15.13;14.03;;;7.50;99.90;;;;;;4988831;28;20221;-81
2020/12/12 11:49:23;;;;;;;16.03;14.83;;;7.60;99.90;;;;;;4985826;28;20219;-79
2020/12/12 11:51:49;;;;;;;14.90;13.90;;;7.60;99.90;;;;;;4975897;28;20214;-79
2020/12/12 11:54:16;;;;;;;15.60;14.50;;;7.60;99.90;;;;;;4963077;28;20295;-79
2020/12/12 11:56:42;;;;;;;16.00;14.90;;;7.60;99.90;;;;;;4986213;28;20281;-78
2020/12/12 11:59:10;;;;;;;15.70;14.60;;;7.70;99.90;;;;;;4974381;28;20274;-78
2020/12/12 12:01:37;;;;;;;15.97;14.87;;;7.70;99.90;;;;;;4984507;28;20746;-79
2020/12/12 12:04:03;;;;;;;14.97;13.90;;;7.60;99.90;;;;;;4982306;28;20278;-79
2020/12/12 12:06:30;;;;;;;15.50;14.37;;;7.60;99.90;;;;;;4989222;28;20206;-80
2020/12/12 12:09:18;;;;;;;15.57;14.57;;;7.70;99.90;;;;;;4998617;28;20227;-79
2020/12/12 12:11:44;;;;;;;14.13;13.23;;;7.60;99.90;;;;;;4997513;28;20205;-80
2020/12/12 12:14:11;;;;;;;16.93;15.73;;;7.60;99.90;;;;;;4989479;28;20207;-82
2020/12/12 12:16:39;;;;;;;15.03;14.00;;;7.70;99.90;;;;;;4989110;28;20198;-81
2020/12/12 12:19:06;;;;;;;14.90;13.83;;;7.70;99.90;;;;;;4993772;28;20231;-80
2020/12/12 12:21:35;;;;;;;15.33;14.33;;;7.70;99.90;;;;;;4992659;28;20706;-81
2020/12/12 12:24:02;;;;;;;15.67;14.67;;;7.70;99.90;;;;;;4982880;28;20204;-77
2020/12/12 12:26:28;;;;;;;14.90;13.90;;;7.70;99.90;;;;;;4983369;28;20207;-78
2020/12/12 12:28:55;;;;;;;16.00;14.70;;;7.70;99.90;;;;;;4979701;28;20251;-79
2020/12/12 12:31:22;;;;;;;15.10;13.90;;;7.70;99.90;;;;;;4978958;28;20210;-79
2020/12/12 12:33:48;;;;;;;14.40;13.40;;;7.70;99.90;;;;;;4976580;28;20207;-79
2020/12/12 12:36:15;;;;;;;14.90;13.67;;;7.70;99.90;;;;;;4975475;28;20204;-80
2020/12/12 12:38:43;;;;;;;15.00;13.83;;;7.70;99.90;;;;;;4990387;28;20225;-78